sensor_id;sensor_type;location;lat;lon;timestamp;P1;durP1;ratioP1;P2;durP2;ratioP2
9834;SDS011;69850;50.942;13.748;2023-07-13T00:00:09;2.80;;;1.73;;
9834;SDS011;69850;50.942;13.748;2023-07-13T00:03:35;4.18;;;2.10;;
9834;SDS011;69850;50.942;13.748;2023-07-13T00:06:55;2.95;;;2.28;;
9834;SDS011;69850;50.942;13.748;2023-07-13T00:10:16;2.78;;;2.40;;
9834;SDS011;69850;50.942;13.748;2023-07-13T00:13:37;2.40;;;2.10;;
9834;SDS011;69850;50.942;13.748;2023-07-13T00:16:59;4.70;;;2.00;;
9834;SDS011;69850;50.942;13.748;2023-07-13T00:20:21;3.72;;;1.90;;
9834;SDS011;69850;50.942;13.748;2023-07-13T00:23:44;4.68;;;2.10;;
9834;SDS011;69850;50.942;13.748;2023-07-13T00:27:05;13.05;;;3.50;;
9834;SDS011;69850;50.942;13.748;2023-07-13T00:30:26;18.90;;;5.32;;
9834;SDS011;69850;50.942;13.748;2023-07-13T00:33:47;10.77;;;4.20;;
9834;SDS011;69850;50.942;13.748;2023-07-13T00:37:09;11.55;;;4.93;;
9834;SDS011;69850;50.942;13.748;2023-07-13T00:40:30;13.18;;;4.93;;
9834;SDS011;69850;50.942;13.748;2023-07-13T00:43:50;7.03;;;4.45;;
9834;SDS011;69850;50.942;13.748;2023-07-13T00:47:11;8.65;;;4.55;;
9834;SDS011;69850;50.942;13.748;2023-07-13T00:50:32;23.88;;;6.53;;
9834;SDS011;69850;50.942;13.748;2023-07-13T00:53:53;13.57;;;6.60;;
9834;SDS011;69850;50.942;13.748;2023-07-13T00:57:16;11.45;;;5.85;;
9834;SDS011;69850;50.942;13.748;2023-07-13T01:00:38;11.05;;;6.25;;
9834;SDS011;69850;50.942;13.748;2023-07-13T01:03:59;10.32;;;4.70;;
9834;SDS011;69850;50.942;13.748;2023-07-13T01:07:19;8.35;;;5.00;;
9834;SDS011;69850;50.942;13.748;2023-07-13T01:10:40;8.75;;;5.60;;
9834;SDS011;69850;50.942;13.748;2023-07-13T01:14:01;9.75;;;6.32;;
9834;SDS011;69850;50.942;13.748;2023-07-13T01:17:22;8.13;;;5.63;;
9834;SDS011;69850;50.942;13.748;2023-07-13T01:21:04;8.30;;;5.38;;
9834;SDS011;69850;50.942;13.748;2023-07-13T01:24:24;14.40;;;7.10;;
9834;SDS011;69850;50.942;13.748;2023-07-13T01:27:46;6.50;;;5.53;;
9834;SDS011;69850;50.942;13.748;2023-07-13T01:31:06;7.65;;;5.63;;
9834;SDS011;69850;50.942;13.748;2023-07-13T01:34:28;9.52;;;6.07;;
9834;SDS011;69850;50.942;13.748;2023-07-13T01:37:49;10.25;;;7.18;;
9834;SDS011;69850;50.942;13.748;2023-07-13T01:41:10;12.10;;;7.13;;
9834;SDS011;69850;50.942;13.748;2023-07-13T01:44:30;9.98;;;8.05;;
9834;SDS011;69850;50.942;13.748;2023-07-13T01:47:51;19.20;;;8.27;;
9834;SDS011;69850;50.942;13.748;2023-07-13T01:51:12;14.55;;;7.93;;
9834;SDS011;69850;50.942;13.748;2023-07-13T01:54:33;11.15;;;8.20;;
9834;SDS011;69850;50.942;13.748;2023-07-13T01:57:54;18.35;;;7.10;;
9834;SDS011;69850;50.942;13.748;2023-07-13T02:01:15;9.10;;;5.68;;
9834;SDS011;69850;50.942;13.748;2023-07-13T02:04:37;8.82;;;6.10;;
9834;SDS011;69850;50.942;13.748;2023-07-13T02:07:58;6.63;;;5.03;;
9834;SDS011;69850;50.942;13.748;2023-07-13T02:11:19;10.23;;;5.30;;
9834;SDS011;69850;50.942;13.748;2023-07-13T02:14:40;12.57;;;5.32;;
9834;SDS011;69850;50.942;13.748;2023-07-13T02:18:00;11.68;;;6.68;;
9834;SDS011;69850;50.942;13.748;2023-07-13T02:21:21;10.95;;;7.18;;
9834;SDS011;69850;50.942;13.748;2023-07-13T02:24:45;16.83;;;8.00;;
9834;SDS011;69850;50.942;13.748;2023-07-13T02:28:06;14.88;;;9.52;;
9834;SDS011;69850;50.942;13.748;2023-07-13T02:31:27;16.33;;;8.77;;
9834;SDS011;69850;50.942;13.748;2023-07-13T02:34:48;14.68;;;8.07;;
9834;SDS011;69850;50.942;13.748;2023-07-13T02:38:09;12.73;;;8.00;;
9834;SDS011;69850;50.942;13.748;2023-07-13T02:41:29;17.23;;;7.22;;
9834;SDS011;69850;50.942;13.748;2023-07-13T02:44:50;12.40;;;7.05;;
9834;SDS011;69850;50.942;13.748;2023-07-13T02:48:13;11.32;;;7.95;;
9834;SDS011;69850;50.942;13.748;2023-07-13T02:51:34;14.85;;;9.00;;
9834;SDS011;69850;50.942;13.748;2023-07-13T02:54:55;14.73;;;10.05;;
9834;SDS011;69850;50.942;13.748;2023-07-13T02:58:16;14.23;;;11.30;;
9834;SDS011;69850;50.942;13.748;2023-07-13T03:01:37;14.23;;;11.00;;
9834;SDS011;69850;50.942;13.748;2023-07-13T03:04:59;19.60;;;10.77;;
9834;SDS011;69850;50.942;13.748;2023-07-13T03:08:19;15.98;;;11.55;;
9834;SDS011;69850;50.942;13.748;2023-07-13T03:11:42;12.18;;;9.90;;
9834;SDS011;69850;50.942;13.748;2023-07-13T03:15:14;16.05;;;11.00;;
9834;SDS011;69850;50.942;13.748;2023-07-13T03:18:38;13.77;;;11.02;;
9834;SDS011;69850;50.942;13.748;2023-07-13T03:22:01;16.60;;;11.82;;
9834;SDS011;69850;50.942;13.748;2023-07-13T03:25:23;14.13;;;11.00;;
9834;SDS011;69850;50.942;13.748;2023-07-13T03:28:45;14.50;;;11.00;;
9834;SDS011;69850;50.942;13.748;2023-07-13T03:32:11;13.63;;;10.35;;
9834;SDS011;69850;50.942;13.748;2023-07-13T03:35:32;12.77;;;10.18;;
9834;SDS011;69850;50.942;13.748;2023-07-13T03:38:54;13.98;;;9.93;;
9834;SDS011;69850;50.942;13.748;2023-07-13T03:42:19;10.57;;;9.05;;
9834;SDS011;69850;50.942;13.748;2023-07-13T03:45:40;12.15;;;8.30;;
9834;SDS011;69850;50.942;13.748;2023-07-13T03:49:01;11.77;;;9.02;;
9834;SDS011;69850;50.942;13.748;2023-07-13T03:52:22;11.40;;;10.02;;
9834;SDS011;69850;50.942;13.748;2023-07-13T03:55:42;13.65;;;10.20;;
9834;SDS011;69850;50.942;13.748;2023-07-13T03:59:04;12.10;;;10.57;;
9834;SDS011;69850;50.942;13.748;2023-07-13T04:02:25;14.70;;;10.10;;
9834;SDS011;69850;50.942;13.748;2023-07-13T04:05:48;11.35;;;8.73;;
9834;SDS011;69850;50.942;13.748;2023-07-13T04:09:09;11.20;;;8.30;;
9834;SDS011;69850;50.942;13.748;2023-07-13T04:12:30;11.05;;;8.02;;
9834;SDS011;69850;50.942;13.748;2023-07-13T04:15:51;8.88;;;7.28;;
9834;SDS011;69850;50.942;13.748;2023-07-13T04:19:12;7.28;;;6.57;;
9834;SDS011;69850;50.942;13.748;2023-07-13T04:22:33;9.73;;;5.80;;
9834;SDS011;69850;50.942;13.748;2023-07-13T04:25:54;5.88;;;4.88;;
9834;SDS011;69850;50.942;13.748;2023-07-13T04:29:14;5.95;;;5.25;;
9834;SDS011;69850;50.942;13.748;2023-07-13T04:32:35;14.38;;;5.82;;
9834;SDS011;69850;50.942;13.748;2023-07-13T04:35:56;7.40;;;6.03;;
9834;SDS011;69850;50.942;13.748;2023-07-13T04:39:17;10.00;;;7.00;;
9834;SDS011;69850;50.942;13.748;2023-07-13T04:42:38;14.27;;;6.70;;
9834;SDS011;69850;50.942;13.748;2023-07-13T04:46:06;12.18;;;6.20;;
9834;SDS011;69850;50.942;13.748;2023-07-13T04:49:28;11.75;;;6.32;;
9834;SDS011;69850;50.942;13.748;2023-07-13T04:52:49;7.65;;;5.82;;
9834;SDS011;69850;50.942;13.748;2023-07-13T04:56:10;8.25;;;4.85;;
9834;SDS011;69850;50.942;13.748;2023-07-13T04:59:31;6.43;;;5.68;;
9834;SDS011;69850;50.942;13.748;2023-07-13T05:02:54;5.10;;;4.40;;
9834;SDS011;69850;50.942;13.748;2023-07-13T05:06:15;7.03;;;4.32;;
9834;SDS011;69850;50.942;13.748;2023-07-13T05:09:36;5.72;;;4.90;;
9834;SDS011;69850;50.942;13.748;2023-07-13T05:12:57;6.68;;;5.45;;
9834;SDS011;69850;50.942;13.748;2023-07-13T05:16:18;5.95;;;4.80;;
9834;SDS011;69850;50.942;13.748;2023-07-13T05:19:39;5.18;;;4.57;;
9834;SDS011;69850;50.942;13.748;2023-07-13T05:23:00;8.85;;;4.47;;
9834;SDS011;69850;50.942;13.748;2023-07-13T05:26:20;8.45;;;4.70;;
9834;SDS011;69850;50.942;13.748;2023-07-13T05:29:41;8.82;;;3.58;;
9834;SDS011;69850;50.942;13.748;2023-07-13T05:33:02;6.07;;;3.08;;
9834;SDS011;69850;50.942;13.748;2023-07-13T05:36:22;6.90;;;3.65;;
9834;SDS011;69850;50.942;13.748;2023-07-13T05:39:43;9.20;;;3.67;;
9834;SDS011;69850;50.942;13.748;2023-07-13T05:43:04;7.35;;;3.80;;
9834;SDS011;69850;50.942;13.748;2023-07-13T05:46:25;7.22;;;3.47;;
9834;SDS011;69850;50.942;13.748;2023-07-13T05:49:45;4.53;;;3.15;;
9834;SDS011;69850;50.942;13.748;2023-07-13T05:53:06;6.57;;;3.17;;
9834;SDS011;69850;50.942;13.748;2023-07-13T05:56:27;4.78;;;3.20;;
9834;SDS011;69850;50.942;13.748;2023-07-13T05:59:48;6.45;;;3.33;;
9834;SDS011;69850;50.942;13.748;2023-07-13T06:03:08;3.45;;;3.03;;
9834;SDS011;69850;50.942;13.748;2023-07-13T06:06:29;5.30;;;3.67;;
9834;SDS011;69850;50.942;13.748;2023-07-13T06:09:50;3.75;;;3.05;;
9834;SDS011;69850;50.942;13.748;2023-07-13T06:13:11;6.22;;;3.25;;
9834;SDS011;69850;50.942;13.748;2023-07-13T06:16:32;6.55;;;3.33;;
9834;SDS011;69850;50.942;13.748;2023-07-13T06:19:54;3.88;;;3.45;;
9834;SDS011;69850;50.942;13.748;2023-07-13T06:23:14;3.88;;;2.72;;
9834;SDS011;69850;50.942;13.748;2023-07-13T06:26:35;4.93;;;3.13;;
9834;SDS011;69850;50.942;13.748;2023-07-13T06:29:56;6.28;;;2.70;;
9834;SDS011;69850;50.942;13.748;2023-07-13T06:33:16;5.15;;;2.83;;
9834;SDS011;69850;50.942;13.748;2023-07-13T06:36:37;6.07;;;2.67;;
9834;SDS011;69850;50.942;13.748;2023-07-13T06:39:58;3.78;;;2.53;;
9834;SDS011;69850;50.942;13.748;2023-07-13T06:43:19;2.97;;;2.55;;
9834;SDS011;69850;50.942;13.748;2023-07-13T06:46:40;7.65;;;3.17;;
9834;SDS011;69850;50.942;13.748;2023-07-13T06:50:01;7.25;;;3.17;;
9834;SDS011;69850;50.942;13.748;2023-07-13T06:53:22;4.22;;;3.20;;
9834;SDS011;69850;50.942;13.748;2023-07-13T06:56:43;3.63;;;2.60;;
9834;SDS011;69850;50.942;13.748;2023-07-13T07:00:03;6.25;;;3.00;;
9834;SDS011;69850;50.942;13.748;2023-07-13T07:03:26;3.63;;;2.60;;
9834;SDS011;69850;50.942;13.748;2023-07-13T07:06:47;3.58;;;2.58;;
9834;SDS011;69850;50.942;13.748;2023-07-13T07:10:08;4.82;;;3.00;;
9834;SDS011;69850;50.942;13.748;2023-07-13T07:13:28;6.57;;;3.05;;
9834;SDS011;69850;50.942;13.748;2023-07-13T07:16:50;4.63;;;2.53;;
9834;SDS011;69850;50.942;13.748;2023-07-13T07:20:11;5.47;;;2.67;;
9834;SDS011;69850;50.942;13.748;2023-07-13T07:23:33;4.53;;;2.97;;
9834;SDS011;69850;50.942;13.748;2023-07-13T07:26:54;3.03;;;2.63;;
9834;SDS011;69850;50.942;13.748;2023-07-13T07:30:14;5.43;;;2.80;;
9834;SDS011;69850;50.942;13.748;2023-07-13T07:33:35;4.65;;;2.75;;
9834;SDS011;69850;50.942;13.748;2023-07-13T07:36:58;3.95;;;2.30;;
9834;SDS011;69850;50.942;13.748;2023-07-13T07:40:20;4.20;;;2.10;;
9834;SDS011;69850;50.942;13.748;2023-07-13T07:43:41;5.25;;;2.80;;
9834;SDS011;69850;50.942;13.748;2023-07-13T07:47:02;4.82;;;2.30;;
9834;SDS011;69850;50.942;13.748;2023-07-13T07:50:23;5.07;;;2.35;;
9834;SDS011;69850;50.942;13.748;2023-07-13T07:53:43;4.00;;;1.98;;
9834;SDS011;69850;50.942;13.748;2023-07-13T07:57:04;4.07;;;2.00;;
9834;SDS011;69850;50.942;13.748;2023-07-13T08:00:25;4.93;;;2.20;;
9834;SDS011;69850;50.942;13.748;2023-07-13T08:03:45;3.50;;;2.10;;
9834;SDS011;69850;50.942;13.748;2023-07-13T08:07:07;4.68;;;2.15;;
9834;SDS011;69850;50.942;13.748;2023-07-13T08:10:28;4.85;;;2.22;;
9834;SDS011;69850;50.942;13.748;2023-07-13T08:13:49;4.65;;;1.92;;
9834;SDS011;69850;50.942;13.748;2023-07-13T08:17:10;5.57;;;1.90;;
9834;SDS011;69850;50.942;13.748;2023-07-13T08:20:31;3.35;;;1.75;;
9834;SDS011;69850;50.942;13.748;2023-07-13T08:23:52;2.58;;;1.60;;
9834;SDS011;69850;50.942;13.748;2023-07-13T08:27:13;4.15;;;1.90;;
9834;SDS011;69850;50.942;13.748;2023-07-13T08:30:34;4.00;;;1.83;;
9834;SDS011;69850;50.942;13.748;2023-07-13T08:33:56;1.52;;;1.25;;
9834;SDS011;69850;50.942;13.748;2023-07-13T08:37:18;5.32;;;1.90;;
9834;SDS011;69850;50.942;13.748;2023-07-13T08:40:40;3.58;;;1.70;;
9834;SDS011;69850;50.942;13.748;2023-07-13T08:44:01;2.75;;;1.30;;
9834;SDS011;69850;50.942;13.748;2023-07-13T08:47:23;4.32;;;1.77;;
9834;SDS011;69850;50.942;13.748;2023-07-13T08:54:26;5.68;;;1.88;;
9834;SDS011;69850;50.942;13.748;2023-07-13T08:58:28;3.55;;;1.70;;
9834;SDS011;69850;50.942;13.748;2023-07-13T09:05:33;3.35;;;1.42;;
9834;SDS011;69850;50.942;13.748;2023-07-13T09:09:00;4.05;;;1.40;;
9834;SDS011;69850;50.942;13.748;2023-07-13T09:16:14;4.55;;;1.92;;
9834;SDS011;69850;50.942;13.748;2023-07-13T09:19:34;2.92;;;1.90;;
9834;SDS011;69850;50.942;13.748;2023-07-13T09:22:56;1.83;;;1.10;;
9834;SDS011;69850;50.942;13.748;2023-07-13T09:26:21;3.80;;;1.73;;
9834;SDS011;69850;50.942;13.748;2023-07-13T09:29:47;3.70;;;1.70;;
9834;SDS011;69850;50.942;13.748;2023-07-13T09:33:11;7.40;;;2.10;;
9834;SDS011;69850;50.942;13.748;2023-07-13T09:36:32;5.18;;;1.73;;
9834;SDS011;69850;50.942;13.748;2023-07-13T09:39:56;3.35;;;1.90;;
9834;SDS011;69850;50.942;13.748;2023-07-13T09:43:18;2.58;;;1.60;;
9834;SDS011;69850;50.942;13.748;2023-07-13T09:46:45;3.83;;;1.60;;
9834;SDS011;69850;50.942;13.748;2023-07-13T09:50:16;4.32;;;1.90;;
9834;SDS011;69850;50.942;13.748;2023-07-13T09:53:36;1.63;;;1.45;;
9834;SDS011;69850;50.942;13.748;2023-07-13T09:56:58;1.60;;;0.93;;
9834;SDS011;69850;50.942;13.748;2023-07-13T10:00:26;3.63;;;1.70;;
9834;SDS011;69850;50.942;13.748;2023-07-13T10:03:52;2.65;;;1.77;;
9834;SDS011;69850;50.942;13.748;2023-07-13T10:07:14;3.92;;;1.50;;
9834;SDS011;69850;50.942;13.748;2023-07-13T10:10:34;2.28;;;1.83;;
9834;SDS011;69850;50.942;13.748;2023-07-13T10:14:03;2.88;;;1.88;;
9834;SDS011;69850;50.942;13.748;2023-07-13T10:17:34;2.65;;;1.70;;
9834;SDS011;69850;50.942;13.748;2023-07-13T10:21:00;3.55;;;1.60;;
9834;SDS011;69850;50.942;13.748;2023-07-13T10:24:35;4.00;;;1.75;;
9834;SDS011;69850;50.942;13.748;2023-07-13T10:28:04;4.28;;;1.65;;
9834;SDS011;69850;50.942;13.748;2023-07-13T10:31:30;3.88;;;1.90;;
9834;SDS011;69850;50.942;13.748;2023-07-13T10:34:51;6.35;;;2.00;;
9834;SDS011;69850;50.942;13.748;2023-07-13T10:38:13;3.15;;;1.80;;
9834;SDS011;69850;50.942;13.748;2023-07-13T10:41:38;3.42;;;1.90;;
9834;SDS011;69850;50.942;13.748;2023-07-13T10:44:59;3.17;;;1.80;;
9834;SDS011;69850;50.942;13.748;2023-07-13T10:48:21;4.22;;;2.70;;
9834;SDS011;69850;50.942;13.748;2023-07-13T10:51:44;4.40;;;1.63;;
9834;SDS011;69850;50.942;13.748;2023-07-13T10:55:05;3.03;;;2.03;;
9834;SDS011;69850;50.942;13.748;2023-07-13T10:58:34;4.13;;;1.80;;
9834;SDS011;69850;50.942;13.748;2023-07-13T11:05:30;1.95;;;1.45;;
9834;SDS011;69850;50.942;13.748;2023-07-13T11:08:54;5.30;;;1.77;;
9834;SDS011;69850;50.942;13.748;2023-07-13T11:15:43;3.63;;;1.60;;
9834;SDS011;69850;50.942;13.748;2023-07-13T11:22:41;2.72;;;1.50;;
9834;SDS011;69850;50.942;13.748;2023-07-13T11:26:03;2.42;;;1.65;;
9834;SDS011;69850;50.942;13.748;2023-07-13T11:32:45;2.53;;;1.52;;
9834;SDS011;69850;50.942;13.748;2023-07-13T11:36:17;4.38;;;1.40;;
9834;SDS011;69850;50.942;13.748;2023-07-13T11:39:42;3.38;;;1.50;;
9834;SDS011;69850;50.942;13.748;2023-07-13T11:43:04;2.78;;;1.48;;
9834;SDS011;69850;50.942;13.748;2023-07-13T11:46:27;3.35;;;1.30;;
9834;SDS011;69850;50.942;13.748;2023-07-13T11:49:49;3.40;;;1.52;;
9834;SDS011;69850;50.942;13.748;2023-07-13T11:53:12;1.92;;;1.02;;
9834;SDS011;69850;50.942;13.748;2023-07-13T11:56:33;4.25;;;1.83;;
9834;SDS011;69850;50.942;13.748;2023-07-13T11:59:54;3.35;;;1.70;;
9834;SDS011;69850;50.942;13.748;2023-07-13T12:03:18;3.63;;;1.70;;
9834;SDS011;69850;50.942;13.748;2023-07-13T12:06:40;2.80;;;1.42;;
9834;SDS011;69850;50.942;13.748;2023-07-13T12:10:25;2.28;;;1.50;;
9834;SDS011;69850;50.942;13.748;2023-07-13T12:13:46;3.33;;;1.55;;
9834;SDS011;69850;50.942;13.748;2023-07-13T12:17:13;3.83;;;1.67;;
9834;SDS011;69850;50.942;13.748;2023-07-13T12:20:37;7.20;;;1.90;;
9834;SDS011;69850;50.942;13.748;2023-07-13T12:23:58;6.90;;;2.00;;
9834;SDS011;69850;50.942;13.748;2023-07-13T12:27:23;3.70;;;1.58;;
9834;SDS011;69850;50.942;13.748;2023-07-13T12:30:47;4.22;;;1.80;;
9834;SDS011;69850;50.942;13.748;2023-07-13T12:37:34;3.40;;;1.75;;
9834;SDS011;69850;50.942;13.748;2023-07-13T12:40:55;3.03;;;1.83;;
9834;SDS011;69850;50.942;13.748;2023-07-13T12:44:17;3.22;;;1.50;;
9834;SDS011;69850;50.942;13.748;2023-07-13T12:47:40;4.13;;;1.30;;
9834;SDS011;69850;50.942;13.748;2023-07-13T12:51:02;3.00;;;1.83;;
9834;SDS011;69850;50.942;13.748;2023-07-13T12:54:23;5.53;;;2.00;;
9834;SDS011;69850;50.942;13.748;2023-07-13T13:01:12;2.72;;;1.55;;
9834;SDS011;69850;50.942;13.748;2023-07-13T13:04:33;2.75;;;1.88;;
9834;SDS011;69850;50.942;13.748;2023-07-13T13:07:54;1.42;;;1.17;;
9834;SDS011;69850;50.942;13.748;2023-07-13T13:11:15;2.95;;;1.90;;
9834;SDS011;69850;50.942;13.748;2023-07-13T13:14:36;4.20;;;2.20;;
9834;SDS011;69850;50.942;13.748;2023-07-13T13:17:57;3.28;;;1.75;;
9834;SDS011;69850;50.942;13.748;2023-07-13T13:21:19;2.80;;;1.83;;
9834;SDS011;69850;50.942;13.748;2023-07-13T13:24:42;1.77;;;1.42;;
9834;SDS011;69850;50.942;13.748;2023-07-13T13:28:03;2.00;;;1.10;;
9834;SDS011;69850;50.942;13.748;2023-07-13T13:31:24;3.28;;;1.60;;
9834;SDS011;69850;50.942;13.748;2023-07-13T13:34:44;3.67;;;1.77;;
9834;SDS011;69850;50.942;13.748;2023-07-13T13:38:25;4.20;;;1.70;;
9834;SDS011;69850;50.942;13.748;2023-07-13T13:41:47;2.53;;;1.60;;
9834;SDS011;69850;50.942;13.748;2023-07-13T13:45:11;6.57;;;1.80;;
9834;SDS011;69850;50.942;13.748;2023-07-13T13:48:33;6.38;;;1.90;;
9834;SDS011;69850;50.942;13.748;2023-07-13T13:51:55;2.55;;;1.50;;
9834;SDS011;69850;50.942;13.748;2023-07-13T13:55:17;9.13;;;4.60;;
9834;SDS011;69850;50.942;13.748;2023-07-13T13:58:39;3.65;;;1.90;;
9834;SDS011;69850;50.942;13.748;2023-07-13T14:02:00;3.28;;;1.77;;
9834;SDS011;69850;50.942;13.748;2023-07-13T14:05:23;4.35;;;3.30;;
9834;SDS011;69850;50.942;13.748;2023-07-13T14:08:47;3.65;;;1.90;;
9834;SDS011;69850;50.942;13.748;2023-07-13T14:12:09;2.88;;;1.30;;
9834;SDS011;69850;50.942;13.748;2023-07-13T14:15:32;4.03;;;1.80;;
9834;SDS011;69850;50.942;13.748;2023-07-13T14:18:52;3.97;;;1.98;;
9834;SDS011;69850;50.942;13.748;2023-07-13T14:22:13;5.30;;;1.63;;
9834;SDS011;69850;50.942;13.748;2023-07-13T14:25:34;3.70;;;1.60;;
9834;SDS011;69850;50.942;13.748;2023-07-13T14:28:55;2.72;;;1.42;;
9834;SDS011;69850;50.942;13.748;2023-07-13T14:32:17;5.38;;;1.65;;
9834;SDS011;69850;50.942;13.748;2023-07-13T14:35:38;4.22;;;1.13;;
9834;SDS011;69850;50.942;13.748;2023-07-13T14:39:00;5.78;;;1.67;;
9834;SDS011;69850;50.942;13.748;2023-07-13T14:42:26;3.25;;;1.80;;
9834;SDS011;69850;50.942;13.748;2023-07-13T14:45:47;3.58;;;1.60;;
9834;SDS011;69850;50.942;13.748;2023-07-13T14:49:21;1.77;;;1.38;;
9834;SDS011;69850;50.942;13.748;2023-07-13T14:52:44;2.00;;;1.40;;
9834;SDS011;69850;50.942;13.748;2023-07-13T14:56:10;3.60;;;1.60;;
9834;SDS011;69850;50.942;13.748;2023-07-13T14:59:32;2.67;;;1.73;;
9834;SDS011;69850;50.942;13.748;2023-07-13T15:02:53;3.17;;;1.60;;
9834;SDS011;69850;50.942;13.748;2023-07-13T15:06:16;3.15;;;1.55;;
9834;SDS011;69850;50.942;13.748;2023-07-13T15:09:37;3.97;;;1.70;;
9834;SDS011;69850;50.942;13.748;2023-07-13T15:12:58;1.75;;;0.93;;
9834;SDS011;69850;50.942;13.748;2023-07-13T15:16:22;6.53;;;1.70;;
9834;SDS011;69850;50.942;13.748;2023-07-13T15:19:43;4.03;;;1.73;;
9834;SDS011;69850;50.942;13.748;2023-07-13T15:23:04;3.85;;;2.13;;
9834;SDS011;69850;50.942;13.748;2023-07-13T15:26:25;4.15;;;1.90;;
9834;SDS011;69850;50.942;13.748;2023-07-13T15:29:46;2.63;;;1.42;;
9834;SDS011;69850;50.942;13.748;2023-07-13T15:33:14;4.07;;;1.70;;
9834;SDS011;69850;50.942;13.748;2023-07-13T15:36:40;2.00;;;1.15;;
9834;SDS011;69850;50.942;13.748;2023-07-13T15:40:00;2.08;;;1.38;;
9834;SDS011;69850;50.942;13.748;2023-07-13T15:43:21;4.22;;;1.30;;
9834;SDS011;69850;50.942;13.748;2023-07-13T15:46:42;1.85;;;1.08;;
9834;SDS011;69850;50.942;13.748;2023-07-13T15:50:03;3.50;;;1.10;;
9834;SDS011;69850;50.942;13.748;2023-07-13T15:53:25;1.83;;;0.70;;
9834;SDS011;69850;50.942;13.748;2023-07-13T15:56:52;3.88;;;1.10;;
9834;SDS011;69850;50.942;13.748;2023-07-13T16:00:15;1.30;;;0.80;;
9834;SDS011;69850;50.942;13.748;2023-07-13T16:03:39;2.42;;;0.70;;
9834;SDS011;69850;50.942;13.748;2023-07-13T16:06:59;0.57;;;0.43;;
9834;SDS011;69850;50.942;13.748;2023-07-13T16:10:24;1.73;;;1.23;;
9834;SDS011;69850;50.942;13.748;2023-07-13T16:13:53;1.90;;;0.90;;
9834;SDS011;69850;50.942;13.748;2023-07-13T16:17:18;2.67;;;0.95;;
9834;SDS011;69850;50.942;13.748;2023-07-13T16:20:39;1.42;;;0.40;;
9834;SDS011;69850;50.942;13.748;2023-07-13T16:24:00;1.85;;;0.90;;
9834;SDS011;69850;50.942;13.748;2023-07-13T16:27:21;3.92;;;0.80;;
9834;SDS011;69850;50.942;13.748;2023-07-13T16:30:44;3.10;;;0.90;;
9834;SDS011;69850;50.942;13.748;2023-07-13T16:34:05;3.70;;;0.70;;
9834;SDS011;69850;50.942;13.748;2023-07-13T16:37:29;0.98;;;0.60;;
9834;SDS011;69850;50.942;13.748;2023-07-13T16:40:49;1.40;;;0.60;;
9834;SDS011;69850;50.942;13.748;2023-07-13T16:44:20;1.95;;;0.90;;
9834;SDS011;69850;50.942;13.748;2023-07-13T16:47:43;1.10;;;0.70;;
9834;SDS011;69850;50.942;13.748;2023-07-13T16:51:04;1.73;;;0.80;;
9834;SDS011;69850;50.942;13.748;2023-07-13T16:54:27;1.33;;;0.90;;
9834;SDS011;69850;50.942;13.748;2023-07-13T16:57:51;3.17;;;0.85;;
9834;SDS011;69850;50.942;13.748;2023-07-13T17:01:11;3.35;;;1.10;;
9834;SDS011;69850;50.942;13.748;2023-07-13T17:04:32;3.65;;;1.40;;
9834;SDS011;69850;50.942;13.748;2023-07-13T17:07:55;2.72;;;1.50;;
9834;SDS011;69850;50.942;13.748;2023-07-13T17:11:16;2.33;;;1.70;;
9834;SDS011;69850;50.942;13.748;2023-07-13T17:14:37;2.88;;;1.60;;
9834;SDS011;69850;50.942;13.748;2023-07-13T17:17:59;4.35;;;1.80;;
9834;SDS011;69850;50.942;13.748;2023-07-13T17:21:27;3.30;;;1.70;;
9834;SDS011;69850;50.942;13.748;2023-07-13T17:24:48;2.42;;;1.70;;
9834;SDS011;69850;50.942;13.748;2023-07-13T17:28:09;3.60;;;1.92;;
9834;SDS011;69850;50.942;13.748;2023-07-13T17:31:30;2.50;;;1.98;;
9834;SDS011;69850;50.942;13.748;2023-07-13T17:34:51;2.92;;;2.03;;
9834;SDS011;69850;50.942;13.748;2023-07-13T17:38:12;3.40;;;1.85;;
9834;SDS011;69850;50.942;13.748;2023-07-13T17:41:32;2.10;;;1.77;;
9834;SDS011;69850;50.942;13.748;2023-07-13T17:44:53;4.07;;;2.10;;
9834;SDS011;69850;50.942;13.748;2023-07-13T17:48:14;3.67;;;2.00;;
9834;SDS011;69850;50.942;13.748;2023-07-13T17:51:34;3.08;;;2.00;;
9834;SDS011;69850;50.942;13.748;2023-07-13T17:54:59;3.30;;;1.90;;
9834;SDS011;69850;50.942;13.748;2023-07-13T17:58:22;4.22;;;2.10;;
9834;SDS011;69850;50.942;13.748;2023-07-13T18:01:44;6.18;;;2.10;;
9834;SDS011;69850;50.942;13.748;2023-07-13T18:05:08;3.33;;;2.20;;
9834;SDS011;69850;50.942;13.748;2023-07-13T18:08:34;2.70;;;1.85;;
9834;SDS011;69850;50.942;13.748;2023-07-13T18:11:55;5.10;;;1.92;;
9834;SDS011;69850;50.942;13.748;2023-07-13T18:15:18;4.97;;;2.10;;
9834;SDS011;69850;50.942;13.748;2023-07-13T18:18:40;4.53;;;2.10;;
9834;SDS011;69850;50.942;13.748;2023-07-13T18:22:11;4.22;;;1.77;;
9834;SDS011;69850;50.942;13.748;2023-07-13T18:25:33;6.78;;;2.08;;
9834;SDS011;69850;50.942;13.748;2023-07-13T18:28:54;4.78;;;2.10;;
9834;SDS011;69850;50.942;13.748;2023-07-13T18:32:15;12.77;;;6.45;;
9834;SDS011;69850;50.942;13.748;2023-07-13T18:35:39;6.35;;;3.42;;
9834;SDS011;69850;50.942;13.748;2023-07-13T18:39:00;4.10;;;1.80;;
9834;SDS011;69850;50.942;13.748;2023-07-13T18:42:21;6.05;;;1.85;;
9834;SDS011;69850;50.942;13.748;2023-07-13T18:45:44;3.70;;;1.45;;
9834;SDS011;69850;50.942;13.748;2023-07-13T18:49:05;4.05;;;2.80;;
9834;SDS011;69850;50.942;13.748;2023-07-13T18:52:26;12.23;;;6.53;;
9834;SDS011;69850;50.942;13.748;2023-07-13T18:55:46;19.05;;;16.15;;
9834;SDS011;69850;50.942;13.748;2023-07-13T18:59:07;3.42;;;1.40;;
9834;SDS011;69850;50.942;13.748;2023-07-13T19:02:28;4.68;;;1.95;;
9834;SDS011;69850;50.942;13.748;2023-07-13T19:05:49;10.05;;;6.13;;
9834;SDS011;69850;50.942;13.748;2023-07-13T19:09:10;5.50;;;2.35;;
9834;SDS011;69850;50.942;13.748;2023-07-13T19:12:31;3.67;;;1.80;;
9834;SDS011;69850;50.942;13.748;2023-07-13T19:15:53;2.47;;;1.30;;
9834;SDS011;69850;50.942;13.748;2023-07-13T19:19:15;4.80;;;1.48;;
9834;SDS011;69850;50.942;13.748;2023-07-13T19:22:36;2.75;;;1.45;;
9834;SDS011;69850;50.942;13.748;2023-07-13T19:26:12;4.72;;;1.55;;
9834;SDS011;69850;50.942;13.748;2023-07-13T19:29:38;2.97;;;1.60;;
9834;SDS011;69850;50.942;13.748;2023-07-13T19:33:00;4.43;;;1.40;;
9834;SDS011;69850;50.942;13.748;2023-07-13T19:36:21;3.55;;;1.50;;
9834;SDS011;69850;50.942;13.748;2023-07-13T19:39:44;4.10;;;1.40;;
9834;SDS011;69850;50.942;13.748;2023-07-13T19:43:08;5.55;;;1.80;;
9834;SDS011;69850;50.942;13.748;2023-07-13T19:46:33;2.17;;;1.52;;
9834;SDS011;69850;50.942;13.748;2023-07-13T19:49:55;4.65;;;1.92;;
9834;SDS011;69850;50.942;13.748;2023-07-13T19:53:17;2.00;;;1.33;;
9834;SDS011;69850;50.942;13.748;2023-07-13T19:56:43;4.35;;;1.48;;
9834;SDS011;69850;50.942;13.748;2023-07-13T20:03:54;3.20;;;1.60;;
9834;SDS011;69850;50.942;13.748;2023-07-13T20:07:21;2.83;;;1.30;;
9834;SDS011;69850;50.942;13.748;2023-07-13T20:10:43;5.05;;;1.80;;
9834;SDS011;69850;50.942;13.748;2023-07-13T20:14:11;4.25;;;1.45;;
9834;SDS011;69850;50.942;13.748;2023-07-13T20:17:36;7.57;;;1.75;;
9834;SDS011;69850;50.942;13.748;2023-07-13T20:20:58;4.50;;;2.22;;
9834;SDS011;69850;50.942;13.748;2023-07-13T20:24:19;6.18;;;2.00;;
9834;SDS011;69850;50.942;13.748;2023-07-13T20:27:40;3.35;;;1.92;;
9834;SDS011;69850;50.942;13.748;2023-07-13T20:31:00;6.40;;;2.00;;
9834;SDS011;69850;50.942;13.748;2023-07-13T20:34:22;4.43;;;1.73;;
9834;SDS011;69850;50.942;13.748;2023-07-13T20:37:44;6.47;;;1.38;;
9834;SDS011;69850;50.942;13.748;2023-07-13T20:41:08;3.42;;;1.60;;
9834;SDS011;69850;50.942;13.748;2023-07-13T20:44:31;3.67;;;2.03;;
9834;SDS011;69850;50.942;13.748;2023-07-13T20:47:51;3.40;;;1.63;;
9834;SDS011;69850;50.942;13.748;2023-07-13T20:51:15;3.15;;;1.48;;